createdAt,value
2019-03-04T00:01:55.993Z,62.57
2019-03-04T00:04:24.555Z,66.67
2019-03-04T00:06:53.238Z,65.03
2019-03-04T00:09:21.966Z,63.53
2019-03-04T00:11:50.524Z,63.90
2019-03-04T00:14:19.225Z,62.30
2019-03-04T00:16:47.773Z,60.33
2019-03-04T00:19:17.402Z,64.67
2019-03-04T00:21:46.013Z,60.37
2019-03-04T00:24:14.688Z,59.23
2019-03-04T00:26:43.181Z,62.77
2019-03-04T00:29:11.715Z,60.63
2019-03-04T00:31:40.274Z,67.10
2019-03-04T00:34:08.818Z,70.07
2019-03-04T00:36:37.381Z,64.03
2019-03-04T00:39:08.964Z,65.50
2019-03-04T00:41:37.523Z,68.60
2019-03-04T00:44:06.207Z,69.83
2019-03-04T00:46:34.770Z,83.97
2019-03-04T00:49:03.382Z,79.47
2019-03-04T00:51:34.702Z,76.23
2019-03-04T00:54:03.262Z,73.03
2019-03-04T00:56:31.886Z,65.67
2019-03-04T00:59:00.459Z,74.87
2019-03-04T01:01:29.067Z,78.60
2019-03-04T01:04:00.810Z,104.70
2019-03-04T01:06:33.619Z,93.17
2019-03-04T01:09:02.248Z,91.07
2019-03-04T01:11:30.779Z,90.70
2019-03-04T01:13:59.402Z,73.00
2019-03-04T01:16:28.079Z,66.13
2019-03-04T01:18:56.577Z,59.97
2019-03-04T01:21:25.149Z,70.30
2019-03-04T01:23:53.728Z,62.17
2019-03-04T01:26:22.333Z,67.80
2019-03-04T01:28:50.828Z,69.87
2019-03-04T01:31:19.390Z,67.07
2019-03-04T01:33:47.960Z,68.73
2019-03-04T01:36:16.596Z,68.77
2019-03-04T01:38:45.171Z,53.07
2019-03-04T01:41:13.783Z,63.03
2019-03-04T01:43:42.447Z,61.93
2019-03-04T01:46:11.088Z,75.23
2019-03-04T01:48:39.650Z,66.83
2019-03-04T01:51:08.328Z,72.20
2019-03-04T01:53:36.817Z,72.37
2019-03-04T01:56:05.507Z,78.80
2019-03-04T01:58:34.003Z,72.50
2019-03-04T02:01:06.119Z,76.87
2019-03-04T02:03:34.718Z,80.67
2019-03-04T02:06:03.327Z,85.43
2019-03-04T02:08:31.882Z,84.13
2019-03-04T02:11:00.520Z,81.60
2019-03-04T02:13:29.127Z,82.63
2019-03-04T02:15:57.666Z,89.57
2019-03-04T02:18:26.197Z,75.73
2019-03-04T02:20:54.829Z,86.67
2019-03-04T02:23:23.431Z,82.17
2019-03-04T02:25:54.985Z,84.40
2019-03-04T02:28:23.514Z,86.33
2019-03-04T02:30:52.078Z,89.33
2019-03-04T02:33:20.678Z,96.90
2019-03-04T02:35:49.251Z,95.57
2019-03-04T02:38:17.748Z,91.43
2019-03-04T02:40:46.300Z,97.43
2019-03-04T02:43:14.934Z,87.60
2019-03-04T02:45:43.616Z,102.70
2019-03-04T02:48:12.172Z,94.67
2019-03-04T02:50:40.858Z,108.03
2019-03-04T02:53:09.416Z,95.57
2019-03-04T02:55:37.999Z,102.33
2019-03-04T02:58:06.674Z,101.50
2019-03-04T03:00:35.382Z,108.17
2019-03-04T03:03:04.061Z,115.20
2019-03-04T03:05:32.755Z,123.33
2019-03-04T03:08:01.313Z,135.00
2019-03-04T03:10:29.882Z,125.13
2019-03-04T03:12:58.536Z,138.73
2019-03-04T03:15:27.764Z,127.77
2019-03-04T03:17:56.405Z,134.20
2019-03-04T03:20:24.982Z,135.80
2019-03-04T03:22:53.557Z,143.20
2019-03-04T03:25:22.187Z,151.93
2019-03-04T03:27:50.729Z,179.83
2019-03-04T03:30:21.277Z,169.90
2019-03-04T03:32:49.962Z,168.13
2019-03-04T03:35:18.589Z,166.37
2019-03-04T03:37:47.258Z,172.47
2019-03-04T03:40:21.427Z,189.63
2019-03-04T03:42:50.150Z,154.27
2019-03-04T03:45:18.804Z,152.77
2019-03-04T03:47:47.466Z,167.60
2019-03-04T03:50:22.157Z,172.67
2019-03-04T03:52:50.785Z,169.37
2019-03-04T03:55:20.639Z,177.83
2019-03-04T03:57:49.277Z,153.50
2019-03-04T04:00:20.536Z,151.30
2019-03-04T04:02:49.198Z,181.53
2019-03-04T04:05:17.838Z,193.97
2019-03-04T04:07:46.459Z,168.27
2019-03-04T04:10:21.888Z,154.07
2019-03-04T04:12:50.575Z,166.30
2019-03-04T04:15:20.216Z,215.43
2019-03-04T04:17:55.353Z,226.13
2019-03-04T04:20:24.007Z,538.33
2019-03-04T04:22:53.986Z,345.77
2019-03-04T04:25:22.551Z,273.70
2019-03-04T04:27:51.105Z,233.53
2019-03-04T04:30:22.477Z,209.33
2019-03-04T04:32:52.226Z,218.77
2019-03-04T04:35:20.787Z,243.67
2019-03-04T04:37:49.285Z,233.53
2019-03-04T04:40:17.901Z,217.83
2019-03-04T04:42:46.512Z,216.67
2019-03-04T04:45:15.195Z,223.03
2019-03-04T04:47:50.139Z,222.83
2019-03-04T04:50:45.225Z,238.77
2019-03-04T04:53:35.319Z,252.07
2019-03-04T04:56:41.821Z,258.77
2019-03-04T04:59:32.955Z,233.47
2019-03-04T05:02:40.340Z,223.27
2019-03-04T05:08:40.342Z,312.10
2019-03-04T05:12:03.340Z,337.90
2019-03-04T05:14:53.174Z,324.90
2019-03-04T05:17:59.638Z,281.73
2019-03-04T05:20:49.290Z,267.60
2019-03-04T05:27:11.985Z,243.10
2019-03-04T05:30:18.383Z,261.93
2019-03-04T05:33:08.312Z,246.30
2019-03-04T05:36:15.081Z,303.93
2019-03-04T05:42:19.304Z,306.17
2019-03-04T05:45:25.838Z,377.20
2019-03-04T05:48:15.497Z,441.77
2019-03-04T05:51:21.806Z,451.50
2019-03-04T05:57:08.294Z,464.77
2019-03-04T05:59:44.306Z,438.93
2019-03-04T06:02:14.627Z,309.37
2019-03-04T06:04:51.958Z,188.07
2019-03-04T06:07:22.254Z,156.13
2019-03-04T06:09:58.447Z,133.17
2019-03-04T06:12:30.246Z,134.30
2019-03-04T06:15:07.798Z,119.97
2019-03-04T06:17:39.498Z,115.77
2019-03-04T06:23:13.749Z,90.87
2019-03-04T06:25:50.344Z,84.17
2019-03-04T06:28:20.620Z,85.47
2019-03-04T06:30:56.979Z,79.73
2019-03-04T06:33:27.229Z,78.63
2019-03-04T06:36:03.442Z,73.17
2019-03-04T06:38:34.229Z,75.60
2019-03-04T06:44:07.812Z,62.87
2019-03-04T06:46:43.819Z,64.30
2019-03-04T06:49:14.206Z,59.07
2019-03-04T06:51:50.429Z,59.73
2019-03-04T06:54:32.527Z,50.47
2019-03-04T06:57:08.867Z,58.47
2019-03-04T06:59:47.781Z,50.93
2019-03-04T07:02:19.096Z,46.00
2019-03-04T07:05:05.551Z,52.80
2019-03-04T07:07:34.313Z,73.93
2019-03-04T07:10:03.000Z,47.50
2019-03-04T07:12:31.799Z,42.60
2019-03-04T07:15:00.347Z,45.00
2019-03-04T07:17:29.137Z,44.50
2019-03-04T07:20:16.012Z,44.07
2019-03-04T07:22:44.759Z,42.03
2019-03-04T07:25:13.582Z,42.00
2019-03-04T07:27:44.355Z,47.33
2019-03-04T07:30:20.793Z,45.47
2019-03-04T07:32:49.432Z,43.43
2019-03-04T07:35:18.129Z,48.30
2019-03-04T07:37:46.832Z,39.03
2019-03-04T07:40:17.818Z,51.03
2019-03-04T07:42:46.618Z,48.40
2019-03-04T07:45:15.346Z,43.37
2019-03-04T07:47:44.137Z,41.00
2019-03-04T07:50:12.781Z,44.67
2019-03-04T07:52:41.556Z,44.97
2019-03-04T07:55:10.393Z,61.37
2019-03-04T07:57:41.832Z,45.53
2019-03-04T08:00:12.571Z,45.90
2019-03-04T08:02:41.311Z,44.50
2019-03-04T08:05:11.413Z,52.00
2019-03-04T08:07:45.038Z,45.37
2019-03-04T08:10:16.573Z,43.33
2019-03-04T08:13:10.765Z,45.00
2019-03-04T08:15:40.314Z,42.40
2019-03-04T08:18:09.019Z,41.03
2019-03-04T08:20:37.861Z,45.63
2019-03-04T08:23:06.602Z,37.00
2019-03-04T08:25:35.366Z,37.30
2019-03-04T08:28:05.524Z,40.93
2019-03-04T08:30:34.576Z,41.93
2019-03-04T08:33:03.356Z,47.17
2019-03-04T08:35:34.514Z,40.80
2019-03-04T08:38:03.193Z,37.90
2019-03-04T08:40:32.394Z,49.00
2019-03-04T08:43:01.042Z,45.03
2019-03-04T08:45:29.899Z,36.10
2019-03-04T08:48:00.476Z,36.73
2019-03-04T08:50:29.325Z,39.10
2019-03-04T08:52:58.014Z,35.17
2019-03-04T08:55:26.756Z,36.00
2019-03-04T08:57:55.550Z,35.17
2019-03-04T09:00:31.462Z,27.97
2019-03-04T09:03:00.230Z,33.67
2019-03-04T09:05:29.129Z,39.70
2019-03-04T09:08:00.678Z,28.03
2019-03-04T09:10:32.026Z,31.87
2019-03-04T09:13:00.661Z,31.93
2019-03-04T09:15:29.454Z,29.87
2019-03-04T09:17:58.249Z,28.63
2019-03-04T09:20:27.271Z,35.07
2019-03-04T09:22:56.517Z,26.70
2019-03-04T09:25:36.854Z,28.97
2019-03-04T09:28:05.688Z,25.23
2019-03-04T09:30:34.555Z,21.57
2019-03-04T09:33:03.286Z,23.10
2019-03-04T09:35:32.778Z,22.70
2019-03-04T09:38:01.685Z,27.47
2019-03-04T09:40:32.482Z,37.07
2019-03-04T09:43:01.922Z,31.10
2019-03-04T09:45:38.400Z,23.55
2019-03-04T09:48:01.133Z,24.05
2019-03-04T09:50:31.080Z,22.40
2019-03-04T09:53:00.055Z,21.35
2019-03-04T09:55:29.285Z,21.07
2019-03-04T09:57:58.373Z,25.92
2019-03-04T10:00:38.986Z,25.92
2019-03-04T10:03:22.846Z,25.55
2019-03-04T10:06:09.256Z,21.25
2019-03-04T10:08:40.795Z,20.55
2019-03-04T10:11:30.276Z,21.07
2019-03-04T10:14:04.467Z,24.45
2019-03-04T10:16:38.816Z,19.07
2019-03-04T10:19:34.367Z,21.97
2019-03-04T10:22:23.656Z,24.20
2019-03-04T10:24:55.195Z,18.90
2019-03-04T10:27:35.693Z,19.73
2019-03-04T10:30:19.108Z,21.97
2019-03-04T10:33:18.088Z,15.45
2019-03-04T10:36:04.661Z,14.68
2019-03-04T10:39:13.720Z,12.15
2019-03-04T10:41:53.624Z,10.55
2019-03-04T10:44:53.302Z,12.85
2019-03-04T10:47:23.971Z,12.07
2019-03-04T10:49:52.745Z,9.95
2019-03-04T10:52:44.757Z,10.75
2019-03-04T10:55:17.801Z,12.28
2019-03-04T10:57:47.069Z,12.58
2019-03-04T11:00:24.977Z,12.58
2019-03-04T11:03:02.943Z,15.83
2019-03-04T11:05:31.995Z,15.05
2019-03-04T11:08:00.830Z,15.75
2019-03-04T11:10:29.631Z,13.08
2019-03-04T11:13:03.250Z,15.03
2019-03-04T11:15:33.495Z,17.20
2019-03-04T11:18:02.364Z,11.48
2019-03-04T11:20:31.223Z,13.58
2019-03-04T11:22:59.991Z,11.22
2019-03-04T11:25:29.197Z,12.82
2019-03-04T11:27:58.142Z,14.17
2019-03-04T11:30:28.543Z,14.85
2019-03-04T11:32:57.494Z,16.05
2019-03-04T11:35:26.355Z,15.72
2019-03-04T11:37:55.350Z,17.73
2019-03-04T11:40:41.574Z,13.30
2019-03-04T11:43:10.375Z,13.25
2019-03-04T11:45:39.096Z,10.50
2019-03-04T11:48:07.801Z,13.25
2019-03-04T11:50:36.575Z,16.93
2019-03-04T11:53:05.408Z,14.70
2019-03-04T11:55:34.191Z,12.45
2019-03-04T11:58:03.157Z,11.53
2019-03-04T12:00:50.032Z,11.55
2019-03-04T12:03:18.829Z,8.83
2019-03-04T12:05:47.621Z,8.78
2019-03-04T12:08:16.425Z,15.70
2019-03-04T12:10:45.193Z,9.23
2019-03-04T12:13:13.972Z,9.10
2019-03-04T12:15:42.673Z,10.30
2019-03-04T12:18:11.461Z,14.03
2019-03-04T12:20:40.253Z,196.05
2019-03-04T12:23:08.993Z,11.93
2019-03-04T12:25:37.871Z,12.95
2019-03-04T12:28:06.694Z,12.10
2019-03-04T12:30:35.450Z,11.48
2019-03-04T12:33:04.575Z,8.48
2019-03-04T12:35:33.407Z,9.85
2019-03-04T12:38:02.215Z,8.68
2019-03-04T12:40:30.921Z,15.78
2019-03-04T12:42:59.503Z,8.68
2019-03-04T12:45:34.378Z,14.47
2019-03-04T12:47:58.926Z,13.35
2019-03-04T12:50:43.599Z,7.75
2019-03-04T12:53:12.491Z,13.28
2019-03-04T12:55:41.145Z,8.65
2019-03-04T12:58:09.917Z,10.05
2019-03-04T13:00:38.776Z,9.28
2019-03-04T13:03:09.415Z,14.83
2019-03-04T13:05:37.970Z,13.35
2019-03-04T13:08:06.786Z,15.28
2019-03-04T13:10:35.492Z,36.23
2019-03-04T13:13:04.209Z,9.63
2019-03-04T13:15:34.559Z,7.87
2019-03-04T13:18:04.421Z,9.40
2019-03-04T13:20:33.173Z,8.48
2019-03-04T13:23:01.804Z,8.55
2019-03-04T13:25:31.107Z,8.83
2019-03-04T13:28:18.661Z,7.67
2019-03-04T13:30:47.677Z,10.08
2019-03-04T13:33:16.564Z,8.45
2019-03-04T13:35:45.450Z,6.75
2019-03-04T13:38:14.130Z,5.70
2019-03-04T13:40:44.352Z,7.83
2019-03-04T13:43:16.070Z,7.08
2019-03-04T13:45:44.734Z,6.12
2019-03-04T13:48:13.420Z,8.00
2019-03-04T13:50:42.044Z,6.83
2019-03-04T13:53:10.595Z,13.93
2019-03-04T13:55:39.337Z,9.63
2019-03-04T13:58:08.034Z,11.53
2019-03-04T14:00:38.666Z,9.28
2019-03-04T14:03:07.958Z,13.40
2019-03-04T14:05:36.563Z,9.28
2019-03-04T14:08:05.335Z,9.75
2019-03-04T14:10:41.864Z,8.13
2019-03-04T14:13:10.488Z,9.95
2019-03-04T14:15:46.686Z,11.55
2019-03-04T14:18:15.311Z,6.12
2019-03-04T14:20:43.906Z,9.05
2019-03-04T14:23:12.537Z,14.60
2019-03-04T14:25:41.406Z,14.40
2019-03-04T14:28:10.031Z,8.15
2019-03-04T14:30:38.692Z,9.25
2019-03-04T14:33:07.331Z,38.50
2019-03-04T14:35:35.975Z,13.83
2019-03-04T14:38:04.675Z,16.97
2019-03-04T14:40:33.303Z,16.85
2019-03-04T14:43:02.157Z,9.48
2019-03-04T14:45:30.855Z,10.05
2019-03-04T14:47:59.475Z,12.65
2019-03-04T14:50:28.618Z,7.83
2019-03-04T14:52:57.398Z,10.32
2019-03-04T14:55:28.360Z,10.93
2019-03-04T14:57:56.997Z,11.68
2019-03-04T15:00:31.570Z,9.68
2019-03-04T15:03:00.217Z,25.12
2019-03-04T15:05:28.841Z,9.48
2019-03-04T15:07:57.511Z,12.58
2019-03-04T15:10:26.051Z,8.78
2019-03-04T15:12:54.728Z,34.73
2019-03-04T15:15:25.921Z,14.05
2019-03-04T15:17:54.451Z,14.23
2019-03-04T15:20:28.091Z,11.63
2019-03-04T15:22:56.723Z,14.50
2019-03-04T15:25:31.350Z,19.35
2019-03-04T15:28:14.011Z,20.23
2019-03-04T15:30:44.395Z,30.97
2019-03-04T15:33:17.903Z,32.57
2019-03-04T15:35:43.373Z,43.00
2019-03-04T15:38:12.052Z,30.63
2019-03-04T15:40:40.697Z,27.40
2019-03-04T15:43:09.439Z,40.90
2019-03-04T15:45:40.047Z,32.90
2019-03-04T15:48:08.810Z,28.37
2019-03-04T15:50:37.494Z,224.90
2019-03-04T15:53:06.731Z,388.57
2019-03-04T15:55:35.407Z,459.43
2019-03-04T15:58:04.235Z,74.97
2019-03-04T16:00:32.800Z,81.00
2019-03-04T16:03:01.493Z,46.27
2019-03-04T16:05:30.165Z,62.67
2019-03-04T16:08:07.023Z,70.73
2019-03-04T16:10:35.692Z,83.50
2019-03-04T16:13:05.002Z,47.57
2019-03-04T16:15:38.681Z,36.03
2019-03-04T16:18:07.314Z,45.90
2019-03-04T16:20:35.989Z,51.87
2019-03-04T16:23:04.618Z,41.87
2019-03-04T16:25:33.299Z,41.83
2019-03-04T16:28:04.841Z,57.60
2019-03-04T16:30:33.519Z,59.23
2019-03-04T16:33:02.083Z,94.20
2019-03-04T16:35:30.768Z,103.83
2019-03-04T16:37:59.399Z,102.17
2019-03-04T16:40:28.039Z,105.90
2019-03-04T16:42:56.653Z,131.93
2019-03-04T16:45:25.327Z,116.63
2019-03-04T16:47:53.966Z,95.43
2019-03-04T16:50:28.267Z,87.63
2019-03-04T16:52:59.195Z,101.70
2019-03-04T16:55:27.874Z,91.20
2019-03-04T16:57:56.499Z,88.73
2019-03-04T17:00:25.204Z,94.87
2019-03-04T17:02:53.880Z,131.07
2019-03-04T17:05:22.519Z,151.90
2019-03-04T17:07:51.154Z,144.27
2019-03-04T17:10:24.735Z,148.90
2019-03-04T17:12:54.615Z,131.87
2019-03-04T17:15:24.147Z,143.20
2019-03-04T17:17:53.078Z,139.37
2019-03-04T17:20:24.616Z,106.27
2019-03-04T17:22:53.239Z,108.73
2019-03-04T17:25:25.507Z,98.47
2019-03-04T17:27:54.148Z,112.53
2019-03-04T17:30:24.919Z,94.30
2019-03-04T17:32:53.540Z,97.33
2019-03-04T17:35:24.173Z,102.70
2019-03-04T17:37:52.789Z,96.50
2019-03-04T17:40:31.470Z,106.47
2019-03-04T17:43:00.097Z,89.50
2019-03-04T17:45:29.535Z,66.20
2019-03-04T17:47:58.202Z,74.80
2019-03-04T17:50:41.090Z,71.47
2019-03-04T17:53:11.857Z,75.07
2019-03-04T17:55:40.450Z,75.83
2019-03-04T17:58:09.076Z,70.33
2019-03-04T18:00:39.345Z,90.13
2019-03-04T18:03:08.121Z,76.77
2019-03-04T18:05:36.798Z,73.83
2019-03-04T18:08:05.420Z,75.17
2019-03-04T18:10:34.021Z,85.07
2019-03-04T18:13:05.459Z,86.10
2019-03-04T18:15:40.013Z,113.97
2019-03-04T18:18:08.573Z,92.50
2019-03-04T18:20:37.210Z,94.13
2019-03-04T18:23:05.868Z,83.23
2019-03-04T18:25:52.332Z,77.67
2019-03-04T18:28:44.463Z,81.30
2019-03-04T18:31:22.229Z,68.17
2019-03-04T18:34:08.960Z,59.17
2019-03-04T18:36:49.659Z,56.33
2019-03-04T18:39:44.087Z,63.20
2019-03-04T18:42:27.739Z,65.30
2019-03-04T18:45:25.027Z,58.17
2019-03-04T18:48:19.418Z,70.20
2019-03-04T18:50:48.103Z,57.10
2019-03-04T18:53:16.637Z,60.70
2019-03-04T18:55:45.302Z,53.03
2019-03-04T18:58:13.927Z,52.70
2019-03-04T19:00:43.201Z,80.70
2019-03-04T19:03:11.790Z,83.93
2019-03-04T19:05:40.545Z,83.93
2019-03-04T19:08:09.172Z,91.90
2019-03-04T19:10:37.750Z,85.73
2019-03-04T19:13:06.441Z,67.77
2019-03-04T19:15:35.069Z,79.60
2019-03-04T19:18:03.670Z,84.83
2019-03-04T19:20:32.346Z,74.10
2019-03-04T19:23:00.909Z,80.13
2019-03-04T19:25:29.519Z,98.80
2019-03-04T19:27:58.148Z,86.27
2019-03-04T19:30:26.712Z,75.53
2019-03-04T19:32:58.365Z,67.87
2019-03-04T19:35:29.753Z,74.10
2019-03-04T19:37:58.401Z,71.07
2019-03-04T19:40:30.228Z,62.93
2019-03-04T19:42:59.163Z,79.73
2019-03-04T19:45:27.794Z,83.60
2019-03-04T19:47:56.398Z,91.57
2019-03-04T19:50:27.878Z,111.50
2019-03-04T19:52:56.535Z,133.97
2019-03-04T19:55:25.098Z,120.23
2019-03-04T19:57:53.670Z,100.03
2019-03-04T20:00:25.830Z,110.63
2019-03-04T20:02:54.672Z,103.87
2019-03-04T20:05:23.841Z,104.97
2019-03-04T20:07:52.450Z,92.33
2019-03-04T20:10:21.227Z,98.43
2019-03-04T20:12:49.795Z,103.93
2019-03-04T20:15:32.768Z,82.83
2019-03-04T20:18:01.393Z,92.20
2019-03-04T20:20:33.007Z,94.63
2019-03-04T20:23:01.689Z,89.73
2019-03-04T20:25:30.326Z,107.50
2019-03-04T20:27:59.100Z,114.13
2019-03-04T20:30:27.838Z,91.13
2019-03-04T20:32:56.509Z,101.43
2019-03-04T20:35:25.136Z,81.50
2019-03-04T20:37:59.913Z,91.80
2019-03-04T20:40:36.741Z,97.73
2019-03-04T20:43:05.418Z,117.57
2019-03-04T20:45:34.132Z,137.17
2019-03-04T20:48:02.629Z,124.17
2019-03-04T20:50:31.306Z,137.00
2019-03-04T20:52:59.947Z,134.50
2019-03-04T20:55:28.702Z,129.47
2019-03-04T20:57:57.277Z,135.70
2019-03-04T21:00:35.218Z,125.73
2019-03-04T21:03:05.145Z,132.30
2019-03-04T21:05:34.158Z,123.90
2019-03-04T21:08:02.841Z,131.37
2019-03-04T21:10:31.465Z,119.87
2019-03-04T21:13:10.506Z,137.97
2019-03-04T21:15:41.909Z,124.57
2019-03-04T21:18:10.561Z,128.70
2019-03-04T21:20:39.230Z,125.13
2019-03-04T21:23:07.898Z,142.07
2019-03-04T21:25:39.466Z,247.93
2019-03-04T21:28:19.742Z,237.30
2019-03-04T21:31:00.250Z,149.40
2019-03-04T21:33:43.960Z,157.10
2019-03-04T21:36:47.403Z,194.27
2019-03-04T21:39:21.531Z,165.70
2019-03-04T21:42:05.089Z,135.70
2019-03-04T21:44:54.366Z,128.53
2019-03-04T21:47:26.128Z,137.67
2019-03-04T21:49:54.885Z,198.17
2019-03-04T21:52:29.286Z,334.17
2019-03-04T21:54:57.858Z,370.80
2019-03-04T21:57:36.102Z,403.37
2019-03-04T22:00:07.694Z,369.43
2019-03-04T22:02:39.290Z,381.53
2019-03-04T22:05:15.106Z,286.80
2019-03-04T22:07:43.773Z,280.20
2019-03-04T22:10:13.985Z,267.80
2019-03-04T22:12:43.526Z,197.73
2019-03-04T22:15:12.313Z,189.80
2019-03-04T22:17:40.964Z,124.87
2019-03-04T22:20:11.739Z,154.93
2019-03-04T22:22:40.295Z,193.03
2019-03-04T22:25:13.342Z,175.90
2019-03-04T22:27:41.912Z,192.60
2019-03-04T22:30:13.495Z,145.97
2019-03-04T22:32:42.149Z,150.53
2019-03-04T22:35:13.626Z,152.03
2019-03-04T22:37:42.343Z,190.20
2019-03-04T22:40:18.289Z,148.93
2019-03-04T22:42:46.906Z,137.83
2019-03-04T22:45:17.620Z,132.00
2019-03-04T22:47:46.642Z,126.37
2019-03-04T22:50:17.833Z,124.53
2019-03-04T22:52:46.471Z,118.43
2019-03-04T22:55:18.414Z,119.77
2019-03-04T22:57:46.996Z,119.77
2019-03-04T23:00:54.349Z,122.73
2019-03-04T23:03:31.626Z,113.03
2019-03-04T23:06:25.855Z,111.37
2019-03-04T23:08:54.490Z,120.13
2019-03-04T23:11:26.078Z,133.17
2019-03-04T23:14:03.777Z,130.20
2019-03-04T23:16:33.456Z,134.63
2019-03-04T23:19:02.097Z,137.83
2019-03-04T23:21:30.722Z,138.17
2019-03-04T23:23:59.363Z,139.27
2019-03-04T23:26:27.986Z,137.43
2019-03-04T23:28:56.663Z,139.30
2019-03-04T23:31:25.347Z,124.43
2019-03-04T23:33:53.828Z,135.30
2019-03-04T23:36:22.476Z,138.17
2019-03-04T23:38:51.084Z,139.23
2019-03-04T23:41:19.657Z,145.43
2019-03-04T23:43:48.335Z,142.20
2019-03-04T23:46:16.950Z,144.20
2019-03-04T23:48:45.439Z,130.93
2019-03-04T23:51:14.043Z,130.13
2019-03-04T23:53:42.677Z,143.37
2019-03-04T23:56:11.341Z,124.73
2019-03-04T23:58:39.968Z,126.43
